sensor_id;sensor_type;location;lat;lon;timestamp;pressure;altitude;pressure_sealevel;temperature
69552;BMP280;58993;45.320;11.864;2022-07-22T00:01:35;101864.41;;;30.20
69552;BMP280;58993;45.320;11.864;2022-07-22T00:04:00;101866.77;;;30.21
69552;BMP280;58993;45.320;11.864;2022-07-22T00:06:27;101866.88;;;30.22
69552;BMP280;58993;45.320;11.864;2022-07-22T00:08:53;101866.63;;;30.23
69552;BMP280;58993;45.320;11.864;2022-07-22T00:11:18;101867.35;;;30.23
69552;BMP280;58993;45.320;11.864;2022-07-22T00:13:43;101864.73;;;30.24
69552;BMP280;58993;45.320;11.864;2022-07-22T00:16:10;101861.83;;;30.24
69552;BMP280;58993;45.320;11.864;2022-07-22T00:18:36;101861.38;;;30.24
69552;BMP280;58993;45.320;11.864;2022-07-22T00:21:01;101859.30;;;30.24
69552;BMP280;58993;45.320;11.864;2022-07-22T00:23:27;101862.06;;;30.24
69552;BMP280;58993;45.320;11.864;2022-07-22T00:25:53;101859.65;;;30.23
69552;BMP280;58993;45.320;11.864;2022-07-22T00:28:19;101859.65;;;30.25
69552;BMP280;58993;45.320;11.864;2022-07-22T00:30:44;101857.55;;;30.24
69552;BMP280;58993;45.320;11.864;2022-07-22T00:33:10;101854.37;;;30.23
69552;BMP280;58993;45.320;11.864;2022-07-22T00:35:35;101851.25;;;30.20
69552;BMP280;58993;45.320;11.864;2022-07-22T00:38:01;101853.97;;;30.23
69552;BMP280;58993;45.320;11.864;2022-07-22T00:40:27;101855.30;;;30.22
69552;BMP280;58993;45.320;11.864;2022-07-22T00:42:52;101854.66;;;30.21
69552;BMP280;58993;45.320;11.864;2022-07-22T00:45:18;101853.11;;;30.22
69552;BMP280;58993;45.320;11.864;2022-07-22T00:47:44;101848.70;;;30.22
69552;BMP280;58993;45.320;11.864;2022-07-22T00:50:09;101849.01;;;30.21
69552;BMP280;58993;45.320;11.864;2022-07-22T00:52:36;101847.73;;;30.21
69552;BMP280;58993;45.320;11.864;2022-07-22T00:55:03;101849.98;;;30.22
69552;BMP280;58993;45.320;11.864;2022-07-22T00:57:28;101849.18;;;30.21
69552;BMP280;58993;45.320;11.864;2022-07-22T00:59:54;101847.88;;;30.20
69552;BMP280;58993;45.320;11.864;2022-07-22T01:02:20;101848.08;;;30.19
69552;BMP280;58993;45.320;11.864;2022-07-22T01:04:45;101850.88;;;30.20
69552;BMP280;58993;45.320;11.864;2022-07-22T01:07:11;101852.40;;;30.20
69552;BMP280;58993;45.320;11.864;2022-07-22T01:09:36;101850.17;;;30.16
69552;BMP280;58993;45.320;11.864;2022-07-22T01:12:02;101855.77;;;30.16
69552;BMP280;58993;45.320;11.864;2022-07-22T01:14:28;101853.52;;;30.15
69552;BMP280;58993;45.320;11.864;2022-07-22T01:16:53;101851.32;;;30.13
69552;BMP280;58993;45.320;11.864;2022-07-22T01:19:19;101850.94;;;30.13
69552;BMP280;58993;45.320;11.864;2022-07-22T01:21:44;101848.72;;;30.12
69552;BMP280;58993;45.320;11.864;2022-07-22T01:24:10;101847.09;;;30.10
69552;BMP280;58993;45.320;11.864;2022-07-22T01:26:35;101846.73;;;30.10
69552;BMP280;58993;45.320;11.864;2022-07-22T01:29:01;101845.73;;;30.08
69552;BMP280;58993;45.320;11.864;2022-07-22T01:31:27;101843.48;;;30.09
69552;BMP280;58993;45.320;11.864;2022-07-22T01:33:54;101841.13;;;30.08
69552;BMP280;58993;45.320;11.864;2022-07-22T01:36:19;101837.86;;;30.06
69552;BMP280;58993;45.320;11.864;2022-07-22T01:38:45;101833.14;;;30.04
69552;BMP280;58993;45.320;11.864;2022-07-22T01:41:10;101835.23;;;30.05
69552;BMP280;58993;45.320;11.864;2022-07-22T01:43:36;101835.53;;;30.05
69552;BMP280;58993;45.320;11.864;2022-07-22T01:46:02;101834.35;;;30.03
69552;BMP280;58993;45.320;11.864;2022-07-22T01:48:28;101836.45;;;30.03
69552;BMP280;58993;45.320;11.864;2022-07-22T01:50:54;101831.05;;;30.01
69552;BMP280;58993;45.320;11.864;2022-07-22T01:53:19;101831.93;;;30.00
69552;BMP280;58993;45.320;11.864;2022-07-22T01:55:45;101830.00;;;29.99
69552;BMP280;58993;45.320;11.864;2022-07-22T01:58:11;101827.10;;;29.98
69552;BMP280;58993;45.320;11.864;2022-07-22T02:00:36;101827.39;;;29.97
69552;BMP280;58993;45.320;11.864;2022-07-22T02:03:02;101828.59;;;29.97
69552;BMP280;58993;45.320;11.864;2022-07-22T02:05:29;101825.33;;;29.94
69552;BMP280;58993;45.320;11.864;2022-07-22T02:08:08;101823.83;;;29.91
69552;BMP280;58993;45.320;11.864;2022-07-22T02:10:34;101826.64;;;29.93
69552;BMP280;58993;45.320;11.864;2022-07-22T02:13:00;101826.02;;;29.93
69552;BMP280;58993;45.320;11.864;2022-07-22T02:15:27;101829.41;;;29.91
69552;BMP280;58993;45.320;11.864;2022-07-22T02:17:53;101830.44;;;29.93
69552;BMP280;58993;45.320;11.864;2022-07-22T02:20:20;101831.34;;;29.95
69552;BMP280;58993;45.320;11.864;2022-07-22T02:22:46;101830.29;;;29.95
69552;BMP280;58993;45.320;11.864;2022-07-22T02:25:12;101829.52;;;29.94
69552;BMP280;58993;45.320;11.864;2022-07-22T02:27:38;101827.77;;;29.94
69552;BMP280;58993;45.320;11.864;2022-07-22T02:30:05;101832.55;;;29.93
69552;BMP280;58993;45.320;11.864;2022-07-22T02:32:31;101833.48;;;29.93
69552;BMP280;58993;45.320;11.864;2022-07-22T02:34:57;101831.36;;;29.93
69552;BMP280;58993;45.320;11.864;2022-07-22T02:37:22;101829.33;;;29.93
69552;BMP280;58993;45.320;11.864;2022-07-22T02:39:47;101827.33;;;29.93
69552;BMP280;58993;45.320;11.864;2022-07-22T02:42:13;101823.90;;;29.94
69552;BMP280;58993;45.320;11.864;2022-07-22T02:44:38;101826.17;;;29.93
69552;BMP280;58993;45.320;11.864;2022-07-22T02:47:04;101826.27;;;29.94
69552;BMP280;58993;45.320;11.864;2022-07-22T02:49:29;101828.77;;;29.94
69552;BMP280;58993;45.320;11.864;2022-07-22T02:51:55;101828.16;;;29.94
69552;BMP280;58993;45.320;11.864;2022-07-22T02:54:20;101830.41;;;29.93
69552;BMP280;58993;45.320;11.864;2022-07-22T02:56:46;101831.83;;;29.93
69552;BMP280;58993;45.320;11.864;2022-07-22T02:59:11;101835.13;;;29.93
69552;BMP280;58993;45.320;11.864;2022-07-22T03:01:37;101837.28;;;29.92
69552;BMP280;58993;45.320;11.864;2022-07-22T03:04:02;101834.80;;;29.89
69552;BMP280;58993;45.320;11.864;2022-07-22T03:06:28;101837.96;;;29.88
69552;BMP280;58993;45.320;11.864;2022-07-22T03:08:53;101836.86;;;29.86
69552;BMP280;58993;45.320;11.864;2022-07-22T03:11:19;101838.27;;;29.85
69552;BMP280;58993;45.320;11.864;2022-07-22T03:13:44;101840.52;;;29.86
69552;BMP280;58993;45.320;11.864;2022-07-22T03:16:10;101839.34;;;29.86
69552;BMP280;58993;45.320;11.864;2022-07-22T03:18:36;101841.62;;;29.85
69552;BMP280;58993;45.320;11.864;2022-07-22T03:21:01;101841.77;;;29.87
69552;BMP280;58993;45.320;11.864;2022-07-22T03:23:27;101844.98;;;29.86
69552;BMP280;58993;45.320;11.864;2022-07-22T03:25:52;101839.27;;;29.83
69552;BMP280;58993;45.320;11.864;2022-07-22T03:28:18;101839.80;;;29.82
69552;BMP280;58993;45.320;11.864;2022-07-22T03:30:43;101843.64;;;29.80
69552;BMP280;58993;45.320;11.864;2022-07-22T03:33:09;101847.20;;;29.81
69552;BMP280;58993;45.320;11.864;2022-07-22T03:35:34;101847.14;;;29.81
69552;BMP280;58993;45.320;11.864;2022-07-22T03:38:00;101850.38;;;29.82
69552;BMP280;58993;45.320;11.864;2022-07-22T03:40:25;101851.35;;;29.82
69552;BMP280;58993;45.320;11.864;2022-07-22T03:42:51;101846.21;;;29.79
69552;BMP280;58993;45.320;11.864;2022-07-22T03:45:16;101847.37;;;29.75
69552;BMP280;58993;45.320;11.864;2022-07-22T03:47:41;101846.52;;;29.71
69552;BMP280;58993;45.320;11.864;2022-07-22T03:50:07;101847.85;;;29.67
69552;BMP280;58993;45.320;11.864;2022-07-22T03:52:33;101852.04;;;29.66
69552;BMP280;58993;45.320;11.864;2022-07-22T03:54:58;101850.77;;;29.64
69552;BMP280;58993;45.320;11.864;2022-07-22T03:57:24;101849.81;;;29.62
69552;BMP280;58993;45.320;11.864;2022-07-22T03:59:49;101849.78;;;29.61
69552;BMP280;58993;45.320;11.864;2022-07-22T04:02:15;101849.64;;;29.59
69552;BMP280;58993;45.320;11.864;2022-07-22T04:04:40;101849.10;;;29.59
69552;BMP280;58993;45.320;11.864;2022-07-22T04:07:06;101850.61;;;29.57
69552;BMP280;58993;45.320;11.864;2022-07-22T04:09:31;101850.24;;;29.54
69552;BMP280;58993;45.320;11.864;2022-07-22T04:11:56;101849.45;;;29.55
69552;BMP280;58993;45.320;11.864;2022-07-22T04:14:22;101850.65;;;29.56
69552;BMP280;58993;45.320;11.864;2022-07-22T04:16:48;101848.73;;;29.55
69552;BMP280;58993;45.320;11.864;2022-07-22T04:19:14;101851.99;;;29.58
69552;BMP280;58993;45.320;11.864;2022-07-22T04:21:40;101850.29;;;29.60
69552;BMP280;58993;45.320;11.864;2022-07-22T04:24:06;101852.19;;;29.58
69552;BMP280;58993;45.320;11.864;2022-07-22T04:26:32;101854.17;;;29.58
69552;BMP280;58993;45.320;11.864;2022-07-22T04:28:58;101854.23;;;29.58
69552;BMP280;58993;45.320;11.864;2022-07-22T04:31:23;101854.77;;;29.59
69552;BMP280;58993;45.320;11.864;2022-07-22T04:33:49;101855.48;;;29.58
69552;BMP280;58993;45.320;11.864;2022-07-22T04:36:14;101856.05;;;29.59
69552;BMP280;58993;45.320;11.864;2022-07-22T04:38:40;101856.95;;;29.59
69552;BMP280;58993;45.320;11.864;2022-07-22T04:41:05;101858.36;;;29.59
69552;BMP280;58993;45.320;11.864;2022-07-22T04:43:31;101858.32;;;29.61
69552;BMP280;58993;45.320;11.864;2022-07-22T04:45:57;101857.55;;;29.61
69552;BMP280;58993;45.320;11.864;2022-07-22T04:48:22;101859.78;;;29.62
69552;BMP280;58993;45.320;11.864;2022-07-22T04:50:48;101858.50;;;29.64
69552;BMP280;58993;45.320;11.864;2022-07-22T04:53:13;101861.86;;;29.64
69552;BMP280;58993;45.320;11.864;2022-07-22T04:55:39;101865.11;;;29.65
69552;BMP280;58993;45.320;11.864;2022-07-22T04:58:05;101867.23;;;29.67
69552;BMP280;58993;45.320;11.864;2022-07-22T05:00:31;101865.23;;;29.68
69552;BMP280;58993;45.320;11.864;2022-07-22T05:02:57;101866.70;;;29.71
69552;BMP280;58993;45.320;11.864;2022-07-22T05:05:22;101869.92;;;29.74
69552;BMP280;58993;45.320;11.864;2022-07-22T05:07:48;101874.48;;;29.76
69552;BMP280;58993;45.320;11.864;2022-07-22T05:10:14;101875.39;;;29.76
69552;BMP280;58993;45.320;11.864;2022-07-22T05:12:39;101877.63;;;29.79
69552;BMP280;58993;45.320;11.864;2022-07-22T05:15:05;101876.46;;;29.80
69552;BMP280;58993;45.320;11.864;2022-07-22T05:17:31;101876.27;;;29.82
69552;BMP280;58993;45.320;11.864;2022-07-22T05:19:56;101875.33;;;29.83
69552;BMP280;58993;45.320;11.864;2022-07-22T05:22:21;101873.89;;;29.84
69552;BMP280;58993;45.320;11.864;2022-07-22T05:24:47;101872.84;;;29.85
69552;BMP280;58993;45.320;11.864;2022-07-22T05:27:13;101876.29;;;29.86
69552;BMP280;58993;45.320;11.864;2022-07-22T05:29:38;101874.61;;;29.86
69552;BMP280;58993;45.320;11.864;2022-07-22T05:32:04;101877.73;;;29.88
69552;BMP280;58993;45.320;11.864;2022-07-22T05:34:30;101876.05;;;29.87
69552;BMP280;58993;45.320;11.864;2022-07-22T05:36:55;101879.79;;;29.89
69552;BMP280;58993;45.320;11.864;2022-07-22T05:39:20;101881.00;;;29.91
69552;BMP280;58993;45.320;11.864;2022-07-22T05:41:46;101879.08;;;29.92
69552;BMP280;58993;45.320;11.864;2022-07-22T05:44:11;101878.19;;;29.95
69552;BMP280;58993;45.320;11.864;2022-07-22T05:46:37;101877.83;;;29.97
69552;BMP280;58993;45.320;11.864;2022-07-22T05:49:02;101880.86;;;30.00
69552;BMP280;58993;45.320;11.864;2022-07-22T05:51:28;101881.79;;;30.01
69552;BMP280;58993;45.320;11.864;2022-07-22T05:53:54;101878.59;;;30.03
69552;BMP280;58993;45.320;11.864;2022-07-22T05:56:19;101879.61;;;30.05
69552;BMP280;58993;45.320;11.864;2022-07-22T05:58:45;101879.45;;;30.07
69552;BMP280;58993;45.320;11.864;2022-07-22T06:01:10;101879.23;;;30.08
69552;BMP280;58993;45.320;11.864;2022-07-22T06:03:36;101881.10;;;30.11
69552;BMP280;58993;45.320;11.864;2022-07-22T06:06:01;101881.41;;;30.12
69552;BMP280;58993;45.320;11.864;2022-07-22T06:08:30;101882.71;;;30.13
69552;BMP280;58993;45.320;11.864;2022-07-22T06:10:56;101885.22;;;30.14
69552;BMP280;58993;45.320;11.864;2022-07-22T06:13:22;101884.54;;;30.15
69552;BMP280;58993;45.320;11.864;2022-07-22T06:15:47;101886.52;;;30.16
69552;BMP280;58993;45.320;11.864;2022-07-22T06:18:13;101888.69;;;30.18
69552;BMP280;58993;45.320;11.864;2022-07-22T06:20:38;101891.08;;;30.20
69552;BMP280;58993;45.320;11.864;2022-07-22T06:23:04;101891.52;;;30.22
69552;BMP280;58993;45.320;11.864;2022-07-22T06:25:29;101894.85;;;30.23
69552;BMP280;58993;45.320;11.864;2022-07-22T06:27:55;101894.14;;;30.23
69552;BMP280;58993;45.320;11.864;2022-07-22T06:30:20;101893.20;;;30.25
69552;BMP280;58993;45.320;11.864;2022-07-22T06:32:46;101893.44;;;30.27
69552;BMP280;58993;45.320;11.864;2022-07-22T06:35:11;101893.08;;;30.28
69552;BMP280;58993;45.320;11.864;2022-07-22T06:37:37;101895.10;;;30.28
69552;BMP280;58993;45.320;11.864;2022-07-22T06:40:03;101896.79;;;30.29
69552;BMP280;58993;45.320;11.864;2022-07-22T06:42:29;101894.21;;;30.30
69552;BMP280;58993;45.320;11.864;2022-07-22T06:44:54;101895.58;;;30.30
69552;BMP280;58993;45.320;11.864;2022-07-22T06:47:19;101897.51;;;30.30
69552;BMP280;58993;45.320;11.864;2022-07-22T06:49:45;101900.20;;;30.30
69552;BMP280;58993;45.320;11.864;2022-07-22T06:52:10;101902.77;;;30.31
69552;BMP280;58993;45.320;11.864;2022-07-22T06:54:36;101904.30;;;30.33
69552;BMP280;58993;45.320;11.864;2022-07-22T06:57:01;101903.16;;;30.33
69552;BMP280;58993;45.320;11.864;2022-07-22T06:59:27;101905.56;;;30.35
69552;BMP280;58993;45.320;11.864;2022-07-22T07:01:52;101906.83;;;30.35
69552;BMP280;58993;45.320;11.864;2022-07-22T07:04:18;101906.62;;;30.36
69552;BMP280;58993;45.320;11.864;2022-07-22T07:06:44;101908.84;;;30.37
69552;BMP280;58993;45.320;11.864;2022-07-22T07:09:10;101912.11;;;30.40
69552;BMP280;58993;45.320;11.864;2022-07-22T07:11:35;101913.51;;;30.42
69552;BMP280;58993;45.320;11.864;2022-07-22T07:14:01;101910.69;;;30.41
69552;BMP280;58993;45.320;11.864;2022-07-22T07:16:27;101911.59;;;30.43
69552;BMP280;58993;45.320;11.864;2022-07-22T07:18:52;101913.20;;;30.44
69552;BMP280;58993;45.320;11.864;2022-07-22T07:21:17;101910.30;;;30.42
69552;BMP280;58993;45.320;11.864;2022-07-22T07:23:43;101906.84;;;30.41
69552;BMP280;58993;45.320;11.864;2022-07-22T07:26:09;101908.87;;;30.41
69552;BMP280;58993;45.320;11.864;2022-07-22T07:28:34;101907.91;;;30.39
69552;BMP280;58993;45.320;11.864;2022-07-22T07:31:00;101905.02;;;30.38
69552;BMP280;58993;45.320;11.864;2022-07-22T07:33:25;101909.73;;;30.39
69552;BMP280;58993;45.320;11.864;2022-07-22T07:35:50;101909.02;;;30.39
69552;BMP280;58993;45.320;11.864;2022-07-22T07:38:16;101905.59;;;30.38
69552;BMP280;58993;45.320;11.864;2022-07-22T07:40:42;101905.89;;;30.39
69552;BMP280;58993;45.320;11.864;2022-07-22T07:43:08;101908.17;;;30.38
69552;BMP280;58993;45.320;11.864;2022-07-22T07:45:33;101909.08;;;30.38
69552;BMP280;58993;45.320;11.864;2022-07-22T07:47:59;101911.66;;;30.39
69552;BMP280;58993;45.320;11.864;2022-07-22T07:50:25;101912.53;;;30.39
69552;BMP280;58993;45.320;11.864;2022-07-22T07:52:51;101911.98;;;30.37
69552;BMP280;58993;45.320;11.864;2022-07-22T07:55:16;101913.45;;;30.36
69552;BMP280;58993;45.320;11.864;2022-07-22T07:57:42;101915.69;;;30.34
69552;BMP280;58993;45.320;11.864;2022-07-22T08:00:10;101917.16;;;30.37
69552;BMP280;58993;45.320;11.864;2022-07-22T08:02:36;101919.04;;;30.36
69552;BMP280;58993;45.320;11.864;2022-07-22T08:05:03;101921.73;;;30.35
69552;BMP280;58993;45.320;11.864;2022-07-22T08:07:29;101917.99;;;30.35
69552;BMP280;58993;45.320;11.864;2022-07-22T08:09:54;101918.89;;;30.37
69552;BMP280;58993;45.320;11.864;2022-07-22T08:12:20;101921.45;;;30.36
69552;BMP280;58993;45.320;11.864;2022-07-22T08:14:45;101922.51;;;30.36
69552;BMP280;58993;45.320;11.864;2022-07-22T08:17:11;101926.78;;;30.34
69552;BMP280;58993;45.320;11.864;2022-07-22T08:19:37;101926.07;;;30.35
69552;BMP280;58993;45.320;11.864;2022-07-22T08:22:03;101925.91;;;30.33
69552;BMP280;58993;45.320;11.864;2022-07-22T08:24:28;101924.23;;;30.35
69552;BMP280;58993;45.320;11.864;2022-07-22T08:26:54;101924.92;;;30.35
69552;BMP280;58993;45.320;11.864;2022-07-22T08:29:19;101929.98;;;30.37
69552;BMP280;58993;45.320;11.864;2022-07-22T08:31:45;101929.41;;;30.36
69552;BMP280;58993;45.320;11.864;2022-07-22T08:34:10;101928.72;;;30.36
69552;BMP280;58993;45.320;11.864;2022-07-22T08:36:36;101930.89;;;30.36
69552;BMP280;58993;45.320;11.864;2022-07-22T08:39:02;101925.15;;;30.35
69552;BMP280;58993;45.320;11.864;2022-07-22T08:41:33;101927.15;;;30.35
69552;BMP280;58993;45.320;11.864;2022-07-22T08:43:59;101923.98;;;30.34
69552;BMP280;58993;45.320;11.864;2022-07-22T08:46:24;101924.88;;;30.36
69552;BMP280;58993;45.320;11.864;2022-07-22T08:48:50;101922.08;;;30.36
69552;BMP280;58993;45.320;11.864;2022-07-22T08:51:15;101923.94;;;30.35
69552;BMP280;58993;45.320;11.864;2022-07-22T08:53:41;101926.48;;;30.35
69552;BMP280;58993;45.320;11.864;2022-07-22T08:56:07;101929.29;;;30.37
69552;BMP280;58993;45.320;11.864;2022-07-22T08:58:32;101925.41;;;30.34
69552;BMP280;58993;45.320;11.864;2022-07-22T09:01:10;101928.31;;;30.36
69552;BMP280;58993;45.320;11.864;2022-07-22T09:03:54;101928.38;;;30.37
69552;BMP280;58993;45.320;11.864;2022-07-22T09:06:23;101925.37;;;30.38
69552;BMP280;58993;45.320;11.864;2022-07-22T09:09:00;101924.69;;;30.38
69552;BMP280;58993;45.320;11.864;2022-07-22T09:11:27;101923.65;;;30.36
69552;BMP280;58993;45.320;11.864;2022-07-22T09:13:54;101920.09;;;30.38
69552;BMP280;58993;45.320;11.864;2022-07-22T09:16:42;101922.05;;;30.40
69552;BMP280;58993;45.320;11.864;2022-07-22T09:19:08;101920.67;;;30.40
69552;BMP280;58993;45.320;11.864;2022-07-22T09:21:35;101919.58;;;30.38
69552;BMP280;58993;45.320;11.864;2022-07-22T09:24:03;101921.17;;;30.38
69552;BMP280;58993;45.320;11.864;2022-07-22T09:26:31;101918.13;;;30.38
69552;BMP280;58993;45.320;11.864;2022-07-22T09:28:57;101920.32;;;30.37
69552;BMP280;58993;45.320;11.864;2022-07-22T09:31:28;101913.72;;;30.38
69552;BMP280;58993;45.320;11.864;2022-07-22T09:33:56;101915.38;;;30.38
69552;BMP280;58993;45.320;11.864;2022-07-22T09:36:22;101911.94;;;30.37
69552;BMP280;58993;45.320;11.864;2022-07-22T09:38:48;101906.41;;;30.37
69552;BMP280;58993;45.320;11.864;2022-07-22T09:41:13;101908.52;;;30.38
69552;BMP280;58993;45.320;11.864;2022-07-22T09:43:39;101908.21;;;30.40
69552;BMP280;58993;45.320;11.864;2022-07-22T09:46:05;101906.98;;;30.40
69552;BMP280;58993;45.320;11.864;2022-07-22T09:48:32;101904.77;;;30.41
69552;BMP280;58993;45.320;11.864;2022-07-22T09:50:58;101899.73;;;30.42
69552;BMP280;58993;45.320;11.864;2022-07-22T09:53:25;101898.04;;;30.40
69552;BMP280;58993;45.320;11.864;2022-07-22T09:55:53;101893.94;;;30.41
69552;BMP280;58993;45.320;11.864;2022-07-22T09:58:19;101891.53;;;30.42
69552;BMP280;58993;45.320;11.864;2022-07-22T10:00:45;101890.13;;;30.43
69552;BMP280;58993;45.320;11.864;2022-07-22T10:03:17;101886.64;;;30.43
69552;BMP280;58993;45.320;11.864;2022-07-22T10:05:43;101886.64;;;30.45
69552;BMP280;58993;45.320;11.864;2022-07-22T10:08:10;101884.67;;;30.49
69552;BMP280;58993;45.320;11.864;2022-07-22T10:10:37;101882.20;;;30.49
69552;BMP280;58993;45.320;11.864;2022-07-22T10:13:12;101881.61;;;30.48
69552;BMP280;58993;45.320;11.864;2022-07-22T10:15:38;101879.48;;;30.51
69552;BMP280;58993;45.320;11.864;2022-07-22T10:18:12;101878.06;;;30.53
69552;BMP280;58993;45.320;11.864;2022-07-22T10:20:38;101877.55;;;30.54
69552;BMP280;58993;45.320;11.864;2022-07-22T10:23:08;101876.86;;;30.54
69552;BMP280;58993;45.320;11.864;2022-07-22T10:25:54;101874.31;;;30.55
69552;BMP280;58993;45.320;11.864;2022-07-22T10:28:29;101873.02;;;30.56
69552;BMP280;58993;45.320;11.864;2022-07-22T10:33:40;101870.94;;;30.58
69552;BMP280;58993;45.320;11.864;2022-07-22T10:36:05;101871.45;;;30.59
69552;BMP280;58993;45.320;11.864;2022-07-22T10:38:31;101869.92;;;30.59
69552;BMP280;58993;45.320;11.864;2022-07-22T10:41:02;101869.75;;;30.57
69552;BMP280;58993;45.320;11.864;2022-07-22T10:43:46;101867.64;;;30.59
69552;BMP280;58993;45.320;11.864;2022-07-22T10:46:13;101863.02;;;30.58
69552;BMP280;58993;45.320;11.864;2022-07-22T10:51:05;101864.58;;;30.51
69552;BMP280;58993;45.320;11.864;2022-07-22T10:53:46;101860.92;;;30.56
69552;BMP280;58993;45.320;11.864;2022-07-22T10:56:16;101859.73;;;30.55
69552;BMP280;58993;45.320;11.864;2022-07-22T10:58:46;101859.48;;;30.54
69552;BMP280;58993;45.320;11.864;2022-07-22T11:01:15;101855.29;;;30.57
69552;BMP280;58993;45.320;11.864;2022-07-22T11:03:43;101851.36;;;30.54
69552;BMP280;58993;45.320;11.864;2022-07-22T11:08:42;101850.22;;;30.58
69552;BMP280;58993;45.320;11.864;2022-07-22T11:11:08;101850.23;;;30.58
69552;BMP280;58993;45.320;11.864;2022-07-22T11:13:36;101849.31;;;30.60
69552;BMP280;58993;45.320;11.864;2022-07-22T11:16:22;101847.26;;;30.59
69552;BMP280;58993;45.320;11.864;2022-07-22T11:18:55;101847.02;;;30.56
69552;BMP280;58993;45.320;11.864;2022-07-22T11:21:23;101845.05;;;30.60
69552;BMP280;58993;45.320;11.864;2022-07-22T11:23:52;101842.10;;;30.58
69552;BMP280;58993;45.320;11.864;2022-07-22T11:26:22;101843.73;;;30.56
69552;BMP280;58993;45.320;11.864;2022-07-22T11:28:49;101843.06;;;30.51
69552;BMP280;58993;45.320;11.864;2022-07-22T11:31:17;101841.10;;;30.53
69552;BMP280;58993;45.320;11.864;2022-07-22T11:33:44;101839.16;;;30.53
69552;BMP280;58993;45.320;11.864;2022-07-22T11:36:11;101835.92;;;30.57
69552;BMP280;58993;45.320;11.864;2022-07-22T11:38:50;101833.23;;;30.60
69552;BMP280;58993;45.320;11.864;2022-07-22T11:41:17;101830.70;;;30.60
69552;BMP280;58993;45.320;11.864;2022-07-22T11:43:48;101828.69;;;30.59
69552;BMP280;58993;45.320;11.864;2022-07-22T11:46:15;101825.11;;;30.59
69552;BMP280;58993;45.320;11.864;2022-07-22T11:48:42;101818.52;;;30.55
69552;BMP280;58993;45.320;11.864;2022-07-22T11:51:09;101816.69;;;30.52
69552;BMP280;58993;45.320;11.864;2022-07-22T11:53:41;101814.39;;;30.52
69552;BMP280;58993;45.320;11.864;2022-07-22T11:56:08;101816.98;;;30.44
69552;BMP280;58993;45.320;11.864;2022-07-22T11:58:35;101813.05;;;30.43
69552;BMP280;58993;45.320;11.864;2022-07-22T12:01:01;101810.86;;;30.49
69552;BMP280;58993;45.320;11.864;2022-07-22T12:03:27;101809.00;;;30.54
69552;BMP280;58993;45.320;11.864;2022-07-22T12:05:54;101805.11;;;30.57
69552;BMP280;58993;45.320;11.864;2022-07-22T12:08:19;101804.70;;;30.60
69552;BMP280;58993;45.320;11.864;2022-07-22T12:10:45;101801.70;;;30.61
69552;BMP280;58993;45.320;11.864;2022-07-22T12:13:11;101798.21;;;30.62
69552;BMP280;58993;45.320;11.864;2022-07-22T12:15:38;101795.28;;;30.64
69552;BMP280;58993;45.320;11.864;2022-07-22T12:18:21;101796.40;;;30.62
69552;BMP280;58993;45.320;11.864;2022-07-22T12:20:48;101788.08;;;30.62
69552;BMP280;58993;45.320;11.864;2022-07-22T12:23:14;101793.63;;;30.59
69552;BMP280;58993;45.320;11.864;2022-07-22T12:26:12;101788.50;;;30.60
69552;BMP280;58993;45.320;11.864;2022-07-22T12:28:38;101789.63;;;30.63
69552;BMP280;58993;45.320;11.864;2022-07-22T12:31:04;101781.98;;;30.65
69552;BMP280;58993;45.320;11.864;2022-07-22T12:33:30;101777.23;;;30.64
69552;BMP280;58993;45.320;11.864;2022-07-22T12:38:27;101769.21;;;30.67
69552;BMP280;58993;45.320;11.864;2022-07-22T12:40:53;101769.50;;;30.64
69552;BMP280;58993;45.320;11.864;2022-07-22T12:43:23;101766.99;;;30.61
69552;BMP280;58993;45.320;11.864;2022-07-22T12:45:51;101755.45;;;30.59
69552;BMP280;58993;45.320;11.864;2022-07-22T12:48:16;101755.77;;;30.61
69552;BMP280;58993;45.320;11.864;2022-07-22T12:50:57;101756.96;;;30.65
69552;BMP280;58993;45.320;11.864;2022-07-22T12:53:24;101758.83;;;30.68
69552;BMP280;58993;45.320;11.864;2022-07-22T12:55:52;101753.00;;;30.68
69552;BMP280;58993;45.320;11.864;2022-07-22T12:58:27;101753.47;;;30.73
69552;BMP280;58993;45.320;11.864;2022-07-22T13:00:56;101750.45;;;30.73
69552;BMP280;58993;45.320;11.864;2022-07-22T13:03:22;101749.14;;;30.72
69552;BMP280;58993;45.320;11.864;2022-07-22T13:05:52;101746.14;;;30.67
69552;BMP280;58993;45.320;11.864;2022-07-22T13:08:18;101744.16;;;30.72
69552;BMP280;58993;45.320;11.864;2022-07-22T13:10:44;101744.14;;;30.77
69552;BMP280;58993;45.320;11.864;2022-07-22T13:13:10;101744.02;;;30.80
69552;BMP280;58993;45.320;11.864;2022-07-22T13:15:36;101743.55;;;30.84
69552;BMP280;58993;45.320;11.864;2022-07-22T13:18:02;101738.92;;;30.82
69552;BMP280;58993;45.320;11.864;2022-07-22T13:20:28;101741.71;;;30.83
69552;BMP280;58993;45.320;11.864;2022-07-22T13:22:53;101743.34;;;30.85
69552;BMP280;58993;45.320;11.864;2022-07-22T13:25:19;101741.28;;;30.83
69552;BMP280;58993;45.320;11.864;2022-07-22T13:27:45;101739.36;;;30.83
69552;BMP280;58993;45.320;11.864;2022-07-22T13:30:11;101737.86;;;30.84
69552;BMP280;58993;45.320;11.864;2022-07-22T13:32:36;101732.62;;;30.85
69552;BMP280;58993;45.320;11.864;2022-07-22T13:35:02;101734.95;;;30.86
69552;BMP280;58993;45.320;11.864;2022-07-22T13:37:28;101732.45;;;30.83
69552;BMP280;58993;45.320;11.864;2022-07-22T13:39:53;101731.17;;;30.86
69552;BMP280;58993;45.320;11.864;2022-07-22T13:42:19;101727.54;;;30.86
69552;BMP280;58993;45.320;11.864;2022-07-22T13:44:45;101729.50;;;30.88
69552;BMP280;58993;45.320;11.864;2022-07-22T13:47:11;101727.36;;;30.90
69552;BMP280;58993;45.320;11.864;2022-07-22T13:49:36;101725.63;;;30.90
69552;BMP280;58993;45.320;11.864;2022-07-22T13:52:02;101721.81;;;30.89